createdAt,value
2017-12-30T00:00:35.061Z,88.08
2017-12-30T00:03:02.645Z,88.63
2017-12-30T00:05:30.227Z,88.33
2017-12-30T00:07:57.815Z,88.79
2017-12-30T00:10:25.405Z,88.34
2017-12-30T00:12:53.608Z,88.89
2017-12-30T00:15:21.222Z,88.70
2017-12-30T00:17:48.906Z,88.92
2017-12-30T00:20:16.568Z,88.14
2017-12-30T00:22:44.149Z,88.77
2017-12-30T00:25:11.762Z,88.63
2017-12-30T00:27:39.359Z,88.72
2017-12-30T00:30:07.031Z,88.04
2017-12-30T00:32:34.642Z,87.78
2017-12-30T00:35:02.264Z,88.43
2017-12-30T00:37:29.839Z,88.55
2017-12-30T00:39:57.415Z,88.21
2017-12-30T00:42:24.999Z,87.89
2017-12-30T00:44:52.575Z,88.23
2017-12-30T00:47:20.185Z,88.19
2017-12-30T00:49:47.809Z,88.48
2017-12-30T00:52:15.478Z,87.67
2017-12-30T00:54:43.063Z,88.38
2017-12-30T00:57:10.694Z,88.41
2017-12-30T00:59:38.359Z,88.13
2017-12-30T01:02:06.775Z,88.35
2017-12-30T01:04:34.391Z,88.11
2017-12-30T01:07:02.845Z,87.26
2017-12-30T01:09:30.424Z,87.65
2017-12-30T01:11:58.106Z,87.30
2017-12-30T01:14:25.686Z,87.41
2017-12-30T01:16:53.326Z,88.49
2017-12-30T01:19:21.003Z,88.32
2017-12-30T01:21:48.622Z,88.23
2017-12-30T01:24:16.197Z,88.61
2017-12-30T01:26:43.882Z,87.78
2017-12-30T01:29:11.510Z,87.30
2017-12-30T01:31:39.108Z,87.76
2017-12-30T01:34:07.516Z,87.23
2017-12-30T01:36:35.095Z,87.34
2017-12-30T01:39:02.679Z,87.38
2017-12-30T01:41:30.291Z,87.54
2017-12-30T01:43:57.866Z,88.70
2017-12-30T01:46:26.341Z,88.53
2017-12-30T01:49:03.658Z,87.83
2017-12-30T01:51:31.265Z,87.62
2017-12-30T01:53:59.670Z,87.59
2017-12-30T01:56:27.269Z,88.08
2017-12-30T01:58:54.851Z,87.69
2017-12-30T02:01:22.425Z,87.87
2017-12-30T02:03:50.003Z,87.39
2017-12-30T02:06:17.655Z,87.74
2017-12-30T02:08:45.370Z,87.76
2017-12-30T02:11:12.954Z,86.79
2017-12-30T02:13:40.535Z,87.51
2017-12-30T02:16:08.138Z,87.18
2017-12-30T02:18:35.758Z,87.34
2017-12-30T02:21:03.457Z,86.99
2017-12-30T02:23:31.066Z,86.80
2017-12-30T02:25:58.698Z,87.37
2017-12-30T02:28:26.309Z,86.66
2017-12-30T02:30:53.890Z,87.19
2017-12-30T02:33:21.536Z,87.45
2017-12-30T02:35:49.218Z,86.10
2017-12-30T02:38:16.798Z,85.41
2017-12-30T02:40:44.373Z,85.12
2017-12-30T02:43:12.135Z,84.52
2017-12-30T02:45:39.750Z,84.86
2017-12-30T02:48:07.366Z,85.05
2017-12-30T02:50:35.737Z,84.46
2017-12-30T02:53:03.318Z,84.84
2017-12-30T02:55:30.906Z,84.81
2017-12-30T02:57:58.569Z,84.84
2017-12-30T03:00:26.201Z,85.02
2017-12-30T03:02:53.929Z,85.74
2017-12-30T03:05:21.567Z,84.53
2017-12-30T03:07:49.143Z,84.92
2017-12-30T03:10:16.718Z,84.18
2017-12-30T03:12:44.404Z,83.55
2017-12-30T03:15:11.982Z,83.92
2017-12-30T03:17:39.769Z,83.56
2017-12-30T03:20:07.598Z,83.02
2017-12-30T03:22:35.174Z,83.68
2017-12-30T03:25:02.795Z,83.01
2017-12-30T03:27:30.370Z,83.06
2017-12-30T03:29:57.946Z,83.28
2017-12-30T03:32:25.645Z,83.46
2017-12-30T03:34:53.418Z,83.29
2017-12-30T03:37:21.014Z,83.86
2017-12-30T03:39:48.781Z,83.59
2017-12-30T03:42:16.351Z,82.84
2017-12-30T03:44:44.703Z,83.50
2017-12-30T03:47:12.282Z,82.63
2017-12-30T03:49:39.860Z,82.11
2017-12-30T03:52:07.444Z,82.23
2017-12-30T03:54:35.011Z,82.36
2017-12-30T03:57:02.693Z,82.03
2017-12-30T03:59:31.174Z,82.27
2017-12-30T04:01:59.450Z,82.03
2017-12-30T04:04:27.998Z,81.40
2017-12-30T04:06:55.604Z,81.26
2017-12-30T04:09:23.173Z,81.32
2017-12-30T04:11:50.748Z,81.85
2017-12-30T04:14:18.413Z,81.59
2017-12-30T04:16:45.986Z,81.36
2017-12-30T04:19:13.606Z,81.47
2017-12-30T04:21:41.263Z,81.87
2017-12-30T04:24:08.931Z,81.44
2017-12-30T04:26:36.594Z,81.07
2017-12-30T04:29:04.257Z,81.71
2017-12-30T04:31:32.869Z,81.65
2017-12-30T04:34:00.483Z,80.72
2017-12-30T04:36:28.162Z,81.47
2017-12-30T04:38:55.829Z,81.87
2017-12-30T04:41:23.490Z,83.23
2017-12-30T04:43:51.155Z,82.10
2017-12-30T04:46:18.817Z,81.24
2017-12-30T04:48:46.399Z,81.48
2017-12-30T04:51:13.977Z,81.42
2017-12-30T04:53:41.550Z,82.00
2017-12-30T04:56:09.163Z,81.99
2017-12-30T04:58:36.755Z,81.45
2017-12-30T05:01:04.487Z,81.45
2017-12-30T05:03:32.066Z,81.21
2017-12-30T05:05:59.715Z,82.41
2017-12-30T05:08:27.337Z,82.31
2017-12-30T05:10:54.992Z,81.57
2017-12-30T05:13:22.610Z,81.39
2017-12-30T05:15:50.318Z,81.91
2017-12-30T05:18:17.980Z,82.96
2017-12-30T05:20:45.585Z,80.56
2017-12-30T05:23:13.253Z,80.94
2017-12-30T05:25:40.909Z,81.36
2017-12-30T05:28:08.573Z,80.72
2017-12-30T05:30:36.245Z,80.93
2017-12-30T05:33:03.939Z,81.43
2017-12-30T05:35:31.561Z,82.16
2017-12-30T05:37:59.226Z,82.66
2017-12-30T05:40:27.624Z,81.91
2017-12-30T05:42:55.190Z,82.92
2017-12-30T05:45:22.990Z,82.83
2017-12-30T05:47:50.734Z,83.07
2017-12-30T05:50:18.298Z,82.45
2017-12-30T05:52:46.846Z,83.20
2017-12-30T05:55:14.427Z,82.93
2017-12-30T05:57:42.002Z,82.26
2017-12-30T06:00:10.434Z,82.80
2017-12-30T06:02:38.105Z,82.78
2017-12-30T06:05:05.778Z,82.33
2017-12-30T06:07:33.473Z,83.00
2017-12-30T06:10:01.040Z,82.70
2017-12-30T06:12:28.659Z,81.60
2017-12-30T06:14:56.321Z,82.77
2017-12-30T06:17:23.881Z,82.21
2017-12-30T06:19:51.446Z,82.39
2017-12-30T06:22:19.214Z,83.29
2017-12-30T06:24:46.834Z,82.41
2017-12-30T06:27:14.440Z,83.21
2017-12-30T06:29:42.097Z,82.63
2017-12-30T06:32:09.758Z,82.84
2017-12-30T06:34:37.337Z,82.38
2017-12-30T06:37:04.945Z,82.52
2017-12-30T06:39:32.785Z,83.16
2017-12-30T06:42:00.353Z,83.58
2017-12-30T06:44:27.928Z,83.11
2017-12-30T06:46:55.604Z,82.67
2017-12-30T06:49:23.177Z,82.48
2017-12-30T06:51:50.823Z,82.80
2017-12-30T06:54:18.394Z,83.01
2017-12-30T06:56:46.037Z,83.50
2017-12-30T06:59:13.601Z,83.01
2017-12-30T07:01:41.466Z,83.33
2017-12-30T07:04:09.038Z,83.22
2017-12-30T07:06:36.604Z,83.62
2017-12-30T07:09:04.297Z,83.02
2017-12-30T07:11:31.879Z,83.88
2017-12-30T07:13:59.483Z,83.89
2017-12-30T07:16:27.141Z,83.83
2017-12-30T07:18:55.412Z,83.53
2017-12-30T07:21:23.509Z,83.84
2017-12-30T07:23:51.865Z,83.84
2017-12-30T07:26:20.421Z,84.09
2017-12-30T07:28:47.986Z,84.38
2017-12-30T07:31:15.578Z,83.85
2017-12-30T07:33:43.218Z,83.96
2017-12-30T07:36:11.713Z,83.95
2017-12-30T07:38:40.155Z,83.56
2017-12-30T07:41:08.784Z,84.33
2017-12-30T07:43:37.881Z,84.52
2017-12-30T07:46:05.699Z,83.60
2017-12-30T07:48:33.474Z,83.69
2017-12-30T07:51:01.517Z,83.33
2017-12-30T07:53:29.405Z,83.05
2017-12-30T07:55:59.061Z,83.45
2017-12-30T07:58:26.738Z,83.69
2017-12-30T08:00:54.418Z,83.84
2017-12-30T08:03:22.183Z,84.67
2017-12-30T08:05:49.960Z,84.06
2017-12-30T08:08:17.864Z,84.15
2017-12-30T08:10:46.147Z,84.26
2017-12-30T08:13:13.861Z,84.33
2017-12-30T08:15:41.500Z,84.61
2017-12-30T08:18:09.174Z,85.26
2017-12-30T08:20:37.043Z,84.82
2017-12-30T08:23:05.647Z,84.11
2017-12-30T08:25:33.504Z,84.49
2017-12-30T08:28:01.213Z,84.81
2017-12-30T08:30:29.080Z,84.93
2017-12-30T08:32:57.079Z,85.06
2017-12-30T08:35:24.758Z,84.65
2017-12-30T08:37:52.323Z,84.74
2017-12-30T08:40:19.889Z,84.27
2017-12-30T08:42:47.542Z,85.72
2017-12-30T08:45:15.087Z,84.48
2017-12-30T08:47:42.819Z,84.90
2017-12-30T08:50:10.513Z,84.78
2017-12-30T08:52:38.138Z,84.52
2017-12-30T08:55:05.706Z,84.07
2017-12-30T08:57:33.357Z,83.77
2017-12-30T09:00:00.927Z,83.68
2017-12-30T09:02:28.501Z,83.60
2017-12-30T09:04:56.065Z,84.00
2017-12-30T09:07:23.807Z,83.70
2017-12-30T09:09:51.462Z,83.48
2017-12-30T09:12:19.138Z,83.04
2017-12-30T09:14:46.735Z,83.43
2017-12-30T09:17:14.295Z,83.07
2017-12-30T09:19:41.927Z,83.40
2017-12-30T09:22:09.637Z,83.60
2017-12-30T09:24:37.445Z,83.68
2017-12-30T09:27:05.012Z,83.94
2017-12-30T09:29:32.673Z,83.76
2017-12-30T09:32:00.335Z,84.45
2017-12-30T09:34:28.003Z,83.88
2017-12-30T09:36:55.662Z,84.35
2017-12-30T09:39:23.946Z,83.69
2017-12-30T09:41:52.423Z,83.88
2017-12-30T09:44:21.014Z,82.84
2017-12-30T09:46:48.675Z,83.13
2017-12-30T09:49:16.242Z,83.53
2017-12-30T09:51:43.809Z,82.99
2017-12-30T09:54:12.274Z,83.14
2017-12-30T09:56:40.650Z,82.90
2017-12-30T09:59:08.214Z,83.26
2017-12-30T10:01:35.782Z,83.47
2017-12-30T10:04:04.123Z,83.81
2017-12-30T10:06:31.691Z,83.34
2017-12-30T10:09:00.099Z,83.11
2017-12-30T10:11:28.448Z,83.13
2017-12-30T10:13:56.102Z,83.67
2017-12-30T10:16:23.671Z,83.41
2017-12-30T10:18:51.282Z,82.77
2017-12-30T10:21:19.222Z,82.16
2017-12-30T10:23:46.930Z,83.13
2017-12-30T10:26:14.550Z,82.52
2017-12-30T10:28:42.113Z,83.14
2017-12-30T10:31:09.695Z,82.00
2017-12-30T10:33:38.166Z,81.95
2017-12-30T10:36:05.731Z,82.04
2017-12-30T10:38:33.309Z,81.81
2017-12-30T10:41:00.944Z,81.65
2017-12-30T10:43:28.513Z,82.25
2017-12-30T10:45:56.079Z,81.92
2017-12-30T10:48:23.655Z,81.56
2017-12-30T10:50:51.273Z,80.95
2017-12-30T10:53:18.847Z,80.84
2017-12-30T10:55:46.414Z,81.04
2017-12-30T10:58:14.102Z,81.26
2017-12-30T11:00:48.359Z,81.14
2017-12-30T11:03:15.917Z,81.76
2017-12-30T11:05:43.550Z,81.95
2017-12-30T11:08:11.206Z,82.11
2017-12-30T11:10:38.814Z,81.84
2017-12-30T11:13:06.373Z,81.82
2017-12-30T11:15:34.319Z,82.09
2017-12-30T11:18:02.152Z,82.63
2017-12-30T11:20:29.794Z,82.35
2017-12-30T11:22:57.354Z,82.14
2017-12-30T11:25:24.973Z,82.34
2017-12-30T11:27:52.571Z,81.79
2017-12-30T11:30:20.134Z,82.43
2017-12-30T11:32:48.301Z,82.29
2017-12-30T11:35:15.937Z,81.94
2017-12-30T11:37:43.511Z,82.61
2017-12-30T11:40:11.102Z,82.21
2017-12-30T11:42:38.679Z,81.59
2017-12-30T11:45:06.275Z,82.23
2017-12-30T11:47:33.888Z,82.66
2017-12-30T11:50:01.483Z,82.64
2017-12-30T11:52:29.108Z,82.21
2017-12-30T11:54:57.026Z,82.04
2017-12-30T11:57:24.640Z,83.06
2017-12-30T11:59:52.299Z,82.18
2017-12-30T12:02:19.863Z,82.50
2017-12-30T12:04:47.525Z,82.58
2017-12-30T12:07:15.091Z,82.31
2017-12-30T12:09:43.013Z,81.50
2017-12-30T12:12:11.498Z,82.10
2017-12-30T12:14:39.968Z,81.54
2017-12-30T12:17:08.538Z,81.69
2017-12-30T12:19:36.113Z,81.75
2017-12-30T12:22:03.728Z,81.35
2017-12-30T12:24:31.290Z,81.36
2017-12-30T12:26:58.853Z,81.45
2017-12-30T12:29:27.518Z,81.07
2017-12-30T12:31:56.053Z,81.46
2017-12-30T12:34:24.706Z,81.93
2017-12-30T12:36:52.271Z,81.66
2017-12-30T12:39:20.739Z,81.23
2017-12-30T12:41:49.468Z,81.15
2017-12-30T12:44:17.029Z,81.22
2017-12-30T12:46:44.816Z,81.10
2017-12-30T12:49:12.450Z,80.56
2017-12-30T12:51:40.014Z,81.44
2017-12-30T12:54:07.626Z,80.34
2017-12-30T12:56:35.205Z,80.84
2017-12-30T12:59:02.809Z,80.11
2017-12-30T13:01:30.370Z,79.69
2017-12-30T13:03:58.150Z,79.36
2017-12-30T13:06:25.717Z,79.31
2017-12-30T13:08:53.314Z,78.78
2017-12-30T13:11:20.881Z,78.99
2017-12-30T13:13:48.450Z,78.45
2017-12-30T13:16:16.085Z,78.19
2017-12-30T13:18:43.634Z,79.03
2017-12-30T13:21:11.325Z,77.94
2017-12-30T13:23:38.889Z,78.49
2017-12-30T13:26:06.558Z,79.28
2017-12-30T13:28:34.209Z,79.15
2017-12-30T13:31:02.501Z,78.45
2017-12-30T13:33:30.126Z,79.31
2017-12-30T13:35:58.316Z,78.70
2017-12-30T13:38:25.883Z,78.26
2017-12-30T13:40:53.833Z,78.39
2017-12-30T13:43:21.455Z,78.31
2017-12-30T13:45:49.022Z,78.47
2017-12-30T13:48:17.478Z,78.03
2017-12-30T13:50:45.048Z,78.55
2017-12-30T13:53:12.622Z,77.46
2017-12-30T13:55:40.215Z,78.18
2017-12-30T13:58:07.815Z,78.62
2017-12-30T14:00:35.523Z,79.42
2017-12-30T14:03:03.094Z,79.21
2017-12-30T14:05:30.705Z,80.29
2017-12-30T14:07:58.337Z,81.49
2017-12-30T14:10:25.887Z,82.00
2017-12-30T14:12:53.511Z,82.39
2017-12-30T14:15:21.902Z,83.59
2017-12-30T14:17:50.515Z,83.13
2017-12-30T14:20:19.173Z,84.57
2017-12-30T14:22:47.662Z,85.03
2017-12-30T14:25:15.285Z,85.40
2017-12-30T14:27:42.850Z,86.28
2017-12-30T14:30:10.427Z,85.10
2017-12-30T14:32:38.072Z,86.15
2017-12-30T14:35:05.735Z,85.07
2017-12-30T14:37:33.306Z,86.86
2017-12-30T14:40:00.912Z,86.78
2017-12-30T14:42:28.478Z,87.69
2017-12-30T14:44:56.042Z,87.98
2017-12-30T14:47:23.611Z,89.59
2017-12-30T14:49:51.186Z,90.07
2017-12-30T14:52:18.751Z,91.04
2017-12-30T14:54:46.421Z,91.49
2017-12-30T14:57:14.911Z,91.51
2017-12-30T14:59:43.860Z,92.79
2017-12-30T15:02:12.387Z,93.08
2017-12-30T15:04:39.957Z,93.49
2017-12-30T15:07:07.527Z,93.71
2017-12-30T15:09:35.206Z,93.58
2017-12-30T15:12:02.870Z,93.86
2017-12-30T15:14:30.569Z,93.93
2017-12-30T15:16:58.400Z,94.15
2017-12-30T15:19:26.057Z,94.58
2017-12-30T15:21:53.691Z,95.06
2017-12-30T15:24:21.258Z,95.23
2017-12-30T15:26:48.846Z,95.11
2017-12-30T15:29:16.420Z,95.38
2017-12-30T15:31:44.134Z,95.58
2017-12-30T15:34:11.706Z,95.01
2017-12-30T15:36:39.358Z,95.62
2017-12-30T15:39:06.930Z,96.10
2017-12-30T15:41:34.584Z,96.16
2017-12-30T15:44:02.205Z,96.07
2017-12-30T15:46:30.280Z,96.45
2017-12-30T15:48:57.891Z,96.93
2017-12-30T15:51:25.731Z,96.83
2017-12-30T15:53:53.515Z,96.78
2017-12-30T15:56:21.902Z,96.80
2017-12-30T15:58:49.478Z,97.21
2017-12-30T16:01:17.114Z,97.16
2017-12-30T16:03:44.782Z,97.38
2017-12-30T16:06:12.352Z,97.05
2017-12-30T16:08:40.004Z,97.17
2017-12-30T16:11:08.524Z,97.32
2017-12-30T16:13:36.818Z,97.51
2017-12-30T16:16:06.226Z,97.07
2017-12-30T16:18:33.834Z,97.35
2017-12-30T16:21:01.393Z,97.42
2017-12-30T16:23:29.778Z,97.57
2017-12-30T16:25:58.159Z,97.41
2017-12-30T16:28:26.666Z,97.37
2017-12-30T16:30:55.066Z,97.31
2017-12-30T16:33:22.675Z,97.25
2017-12-30T16:35:50.257Z,97.27
2017-12-30T16:38:17.827Z,97.20
2017-12-30T16:40:45.463Z,97.53
2017-12-30T16:43:13.117Z,97.68
2017-12-30T16:45:40.742Z,97.67
2017-12-30T16:48:08.555Z,97.87
2017-12-30T16:50:36.139Z,97.64
2017-12-30T16:53:06.184Z,97.60
2017-12-30T16:55:33.755Z,97.72
2017-12-30T16:58:01.360Z,97.75
2017-12-30T17:00:28.929Z,98.15
2017-12-30T17:02:56.655Z,97.76
2017-12-30T17:05:24.233Z,97.74
2017-12-30T17:07:52.832Z,97.81
2017-12-30T17:10:21.415Z,97.66
2017-12-30T17:12:48.991Z,97.46
2017-12-30T17:15:17.130Z,97.61
2017-12-30T17:17:44.741Z,97.56
2017-12-30T17:20:12.315Z,97.54
2017-12-30T17:22:39.963Z,97.74
2017-12-30T17:25:08.352Z,97.48
2017-12-30T17:27:36.644Z,97.65
2017-12-30T17:30:05.094Z,97.58
2017-12-30T17:32:32.737Z,97.81
2017-12-30T17:35:00.323Z,97.84
2017-12-30T17:37:27.889Z,97.75
2017-12-30T17:39:56.538Z,97.55
2017-12-30T17:42:24.215Z,97.32
2017-12-30T17:44:51.818Z,97.43
2017-12-30T17:47:19.441Z,97.74
2017-12-30T17:49:47.043Z,97.48
2017-12-30T17:52:14.615Z,97.63
2017-12-30T17:54:42.336Z,97.50
2017-12-30T17:57:09.910Z,97.41
2017-12-30T17:59:37.489Z,97.72
2017-12-30T18:02:05.119Z,98.03
2017-12-30T18:04:32.774Z,97.98
2017-12-30T18:07:00.357Z,97.90
2017-12-30T18:09:27.924Z,98.32
2017-12-30T18:11:55.562Z,98.21
2017-12-30T18:14:23.279Z,98.27
2017-12-30T18:16:50.848Z,98.21
2017-12-30T18:19:18.600Z,98.49
2017-12-30T18:21:46.171Z,98.05
2017-12-30T18:24:13.747Z,98.00
2017-12-30T18:26:41.320Z,97.47
2017-12-30T18:29:08.892Z,97.82
2017-12-30T18:31:36.497Z,98.03
2017-12-30T18:34:05.005Z,97.95
2017-12-30T18:36:33.395Z,98.08
2017-12-30T18:39:01.762Z,98.13
2017-12-30T18:41:29.344Z,98.12
2017-12-30T18:43:56.917Z,98.02
2017-12-30T18:46:25.317Z,97.88
2017-12-30T18:48:53.014Z,97.88
2017-12-30T18:51:20.762Z,97.54
2017-12-30T18:53:48.372Z,97.44
2017-12-30T18:56:16.206Z,97.70
2017-12-30T18:58:43.973Z,97.89
2017-12-30T19:01:11.591Z,97.81
2017-12-30T19:03:39.172Z,98.13
2017-12-30T19:06:06.739Z,98.28
2017-12-30T19:08:34.829Z,98.44
2017-12-30T19:11:02.862Z,98.59
2017-12-30T19:13:30.609Z,98.61
2017-12-30T19:15:58.277Z,98.59
2017-12-30T19:18:25.899Z,98.45
2017-12-30T19:20:53.466Z,98.49
2017-12-30T19:23:21.063Z,98.71
2017-12-30T19:25:48.639Z,98.57
2017-12-30T19:28:16.212Z,98.20
2017-12-30T19:30:44.808Z,97.87
2017-12-30T19:33:12.588Z,98.03
2017-12-30T19:35:41.106Z,98.04
2017-12-30T19:38:08.779Z,97.88
2017-12-30T19:40:36.450Z,97.70
2017-12-30T19:43:06.935Z,97.21
2017-12-30T19:45:34.535Z,96.96
2017-12-30T19:48:02.299Z,97.25
2017-12-30T19:50:29.957Z,97.57
2017-12-30T19:52:57.794Z,97.45
2017-12-30T19:55:26.082Z,97.65
2017-12-30T19:57:54.261Z,98.03
2017-12-30T20:00:21.894Z,97.88
2017-12-30T20:02:49.617Z,98.04
2017-12-30T20:05:17.272Z,98.15
2017-12-30T20:07:44.955Z,98.12
2017-12-30T20:10:12.644Z,98.34
2017-12-30T20:12:40.375Z,98.72
2017-12-30T20:15:08.048Z,98.84
2017-12-30T20:17:36.452Z,98.63
2017-12-30T20:20:05.765Z,98.19
2017-12-30T20:22:33.339Z,97.98
2017-12-30T20:25:00.951Z,97.98
2017-12-30T20:27:28.598Z,97.88
2017-12-30T20:29:56.208Z,98.08
2017-12-30T20:32:23.779Z,98.34
2017-12-30T20:34:51.383Z,98.61
2017-12-30T20:37:19.042Z,98.25
2017-12-30T20:39:47.479Z,98.04
2017-12-30T20:42:15.051Z,97.82
2017-12-30T20:44:42.622Z,97.30
2017-12-30T20:47:11.024Z,97.28
2017-12-30T20:49:40.378Z,96.51
2017-12-30T20:52:08.971Z,95.68
2017-12-30T20:54:37.615Z,95.27
2017-12-30T20:57:05.208Z,94.76
2017-12-30T20:59:32.858Z,94.50
2017-12-30T21:02:00.463Z,94.70
2017-12-30T21:04:29.179Z,93.96
2017-12-30T21:06:57.731Z,93.13
2017-12-30T21:09:26.007Z,93.19
2017-12-30T21:11:53.602Z,92.86
2017-12-30T21:14:21.257Z,91.90
2017-12-30T21:16:48.918Z,91.98
2017-12-30T21:19:16.953Z,92.04
2017-12-30T21:21:44.695Z,91.47
2017-12-30T21:24:12.269Z,92.03
2017-12-30T21:26:39.844Z,91.92
2017-12-30T21:29:07.805Z,91.06
2017-12-30T21:31:35.446Z,90.40
2017-12-30T21:34:03.894Z,90.12
2017-12-30T21:36:31.486Z,90.34
2017-12-30T21:39:00.284Z,90.99
2017-12-30T21:41:28.047Z,91.00
2017-12-30T21:43:56.515Z,90.43
2017-12-30T21:46:24.083Z,90.32
2017-12-30T21:48:51.706Z,90.90
2017-12-30T21:51:19.278Z,90.28
2017-12-30T21:53:46.846Z,90.51
2017-12-30T21:56:14.458Z,90.89
2017-12-30T21:58:42.169Z,91.28
2017-12-30T22:01:09.986Z,91.17
2017-12-30T22:03:37.647Z,91.25
2017-12-30T22:06:06.176Z,90.97
2017-12-30T22:08:34.630Z,90.50
2017-12-30T22:11:02.207Z,90.60
2017-12-30T22:13:29.783Z,90.57
2017-12-30T22:15:57.559Z,90.17
2017-12-30T22:18:25.136Z,90.36
2017-12-30T22:20:52.804Z,90.10
2017-12-30T22:23:20.431Z,89.98
2017-12-30T22:25:48.153Z,89.74
2017-12-30T22:28:16.524Z,88.90
2017-12-30T22:30:44.145Z,88.67
2017-12-30T22:33:11.736Z,89.22
2017-12-30T22:35:39.468Z,88.46
2017-12-30T22:38:07.811Z,87.81
2017-12-30T22:40:35.431Z,87.83
2017-12-30T22:43:07.008Z,87.57
2017-12-30T22:45:34.619Z,87.35
2017-12-30T22:48:02.278Z,86.63
2017-12-30T22:50:30.055Z,86.47
2017-12-30T22:52:57.628Z,86.24
2017-12-30T22:55:25.306Z,86.12
2017-12-30T22:57:52.923Z,86.65
2017-12-30T23:00:29.193Z,86.26
2017-12-30T23:02:56.802Z,86.52
2017-12-30T23:05:24.408Z,87.23
2017-12-30T23:07:52.456Z,87.64
2017-12-30T23:10:20.840Z,87.86
2017-12-30T23:12:48.637Z,87.72
2017-12-30T23:15:16.288Z,87.81
2017-12-30T23:17:43.869Z,87.40
2017-12-30T23:20:11.537Z,87.93
2017-12-30T23:22:39.097Z,87.75
2017-12-30T23:25:06.820Z,87.16
2017-12-30T23:27:34.461Z,86.40
2017-12-30T23:30:02.061Z,86.52
2017-12-30T23:32:29.654Z,86.39
2017-12-30T23:34:57.318Z,86.21
2017-12-30T23:37:24.909Z,85.93
2017-12-30T23:39:52.474Z,86.14
2017-12-30T23:42:20.034Z,86.37
2017-12-30T23:44:48.455Z,86.83
2017-12-30T23:47:16.057Z,86.84
2017-12-30T23:49:43.626Z,87.14
2017-12-30T23:52:11.198Z,86.75
2017-12-30T23:54:38.762Z,86.48
2017-12-30T23:57:06.377Z,86.67
2017-12-30T23:59:34.050Z,86.37
